Time;durP1;ratioP1;P1;durP2;ratioP2;P2;SDS_P1;SDS_P2;PMS_P1;PMS_P2;Temp;Humidity;BMP_temperature;BMP_pressure;BME280_temperature;BME280_humidity;BME280_pressure;Samples;Min_cycle;Max_cycle;Signal;HPM_P1;HPM_P2
2023/06/04 00:00:06;;;;;;;2.40;0.50;;;18.10;61.90;;;;;;5096065;28;20048;-80
2023/06/04 00:02:32;;;;;;;1.67;0.30;;;18.00;61.80;;;;;;5077283;28;20055;-80
2023/06/04 00:04:58;;;;;;;3.55;0.30;;;18.10;61.90;;;;;;5095488;28;20028;-80
2023/06/04 00:07:23;;;;;;;1.25;0.20;;;18.20;61.60;;;;;;5077268;28;20076;-81
2023/06/04 00:09:49;;;;;;;1.80;0.47;;;18.20;61.50;;;;;;5095492;28;20082;-81
2023/06/04 00:12:15;;;;;;;1.10;0.38;;;18.20;61.20;;;;;;5095502;28;20031;-81
2023/06/04 00:14:41;;;;;;;2.35;0.50;;;18.20;61.50;;;;;;5095084;28;20032;-80
2023/06/04 00:17:08;;;;;;;1.23;0.40;;;18.00;61.70;;;;;;5095510;28;20483;-80
2023/06/04 00:19:34;;;;;;;1.27;0.40;;;18.00;61.50;;;;;;5095251;28;20032;-80
2023/06/04 00:22:00;;;;;;;2.58;0.45;;;18.00;61.50;;;;;;5094884;28;20028;-80
2023/06/04 00:24:25;;;;;;;2.17;0.50;;;18.00;61.50;;;;;;5095175;28;20032;-80
2023/06/04 00:26:51;;;;;;;2.47;0.55;;;18.00;61.40;;;;;;5094828;28;20105;-81
2023/06/04 00:29:16;;;;;;;1.73;0.50;;;18.10;61.40;;;;;;5095217;28;20439;-81
2023/06/04 00:31:42;;;;;;;2.70;0.40;;;18.10;61.20;;;;;;5095369;28;20028;-81
2023/06/04 00:34:08;;;;;;;2.95;0.52;;;18.10;61.20;;;;;;5095012;28;20027;-81
2023/06/04 00:36:33;;;;;;;2.75;0.40;;;18.20;61.20;;;;;;5077129;28;20043;-82
2023/06/04 00:38:59;;;;;;;1.90;0.47;;;18.20;61.00;;;;;;5095008;28;20035;-82
2023/06/04 00:41:25;;;;;;;3.97;0.50;;;18.20;60.90;;;;;;5094687;28;20444;-82
2023/06/04 00:43:55;;;;;;;2.25;0.40;;;18.10;60.80;;;;;;5076629;28;20032;-82
2023/06/04 00:46:25;;;;;;;2.28;0.52;;;18.10;60.90;;;;;;5094367;28;20060;-83
2023/06/04 00:48:51;;;;;;;1.83;0.35;;;18.00;61.10;;;;;;5094657;28;20032;-80
2023/06/04 00:51:16;;;;;;;4.80;0.90;;;18.00;61.10;;;;;;5094314;28;20032;-80
2023/06/04 00:53:42;;;;;;;2.30;0.50;;;18.00;60.90;;;;;;5094480;28;20044;-80
2023/06/04 00:56:08;;;;;;;2.53;0.73;;;17.90;61.00;;;;;;5076314;28;20032;-80
2023/06/04 00:58:38;;;;;;;7.05;0.68;;;17.70;61.30;;;;;;5094644;28;20028;-80
2023/06/04 01:01:19;;;;;;;3.22;0.50;;;17.70;61.60;;;;;;5094504;28;20520;-80
2023/06/04 01:03:49;;;;;;;2.58;0.50;;;17.60;61.60;;;;;;5094551;28;20024;-80
2023/06/04 01:06:36;;;;;;;2.65;0.50;;;17.70;61.80;;;;;;5094064;28;20106;-80
2023/06/04 01:09:03;;;;;;;6.80;0.73;;;17.70;61.60;;;;;;5094354;28;20122;-80
2023/06/04 01:11:35;;;;;;;2.85;0.55;;;17.60;61.50;;;;;;5094342;28;20457;-80
2023/06/04 01:14:03;;;;;;;2.55;0.52;;;17.40;61.90;;;;;;5094286;28;20495;-80
2023/06/04 01:16:34;;;;;;;1.88;0.60;;;17.50;62.10;;;;;;5094192;28;20039;-80
2023/06/04 01:19:02;;;;;;;1.98;0.70;;;17.50;61.80;;;;;;5076097;28;20031;-80
2023/06/04 01:21:32;;;;;;;1.95;0.50;;;17.40;61.80;;;;;;5075638;28;20031;-80
2023/06/04 01:24:01;;;;;;;2.15;0.60;;;17.30;62.00;;;;;;5094321;28;20028;-80
2023/06/04 01:26:29;;;;;;;1.30;0.50;;;17.20;61.70;;;;;;5094029;28;20475;-80
2023/06/04 01:28:56;;;;;;;2.35;0.60;;;17.20;62.30;;;;;;5093909;28;20036;-80
2023/06/04 01:31:24;;;;;;;3.38;0.68;;;17.30;62.00;;;;;;5093897;28;20035;-80
2023/06/04 01:33:54;;;;;;;4.28;0.40;;;17.20;62.00;;;;;;5076126;28;20028;-80
2023/06/04 01:36:20;;;;;;;1.20;0.30;;;17.20;62.50;;;;;;5093428;28;20027;-80
2023/06/04 01:38:46;;;;;;;4.65;0.70;;;17.30;61.70;;;;;;5093575;28;20111;-79
2023/06/04 01:41:11;;;;;;;1.05;0.30;;;17.20;61.80;;;;;;5093823;28;20044;-80
2023/06/04 01:43:37;;;;;;;1.20;0.63;;;17.10;62.10;;;;;;5075565;28;20063;-80
2023/06/04 01:46:03;;;;;;;3.00;0.50;;;17.20;62.20;;;;;;5093553;28;20048;-80
2023/06/04 01:48:29;;;;;;;2.88;0.47;;;17.20;61.60;;;;;;5093742;28;20530;-79
2023/06/04 01:50:56;;;;;;;1.00;0.47;;;17.10;61.60;;;;;;5093683;28;20032;-80
2023/06/04 01:53:21;;;;;;;1.73;0.77;;;17.00;61.80;;;;;;5091834;28;20472;-80
2023/06/04 01:55:49;;;;;;;2.50;0.50;;;17.10;61.80;;;;;;5075312;28;20043;-79
2023/06/04 01:58:26;;;;;;;3.55;0.50;;;17.00;61.70;;;;;;5093599;28;20081;-80
2023/06/04 02:00:53;;;;;;;2.10;0.43;;;17.10;62.00;;;;;;5093609;28;20036;-80
2023/06/04 02:03:18;;;;;;;2.30;0.30;;;17.00;61.70;;;;;;5093651;28;20039;-79
2023/06/04 02:05:46;;;;;;;2.45;0.40;;;17.00;61.70;;;;;;5093329;28;20028;-80
2023/06/04 02:08:18;;;;;;;2.42;0.30;;;16.90;61.90;;;;;;5093496;28;20027;-80
2023/06/04 02:10:47;;;;;;;2.55;0.50;;;16.90;62.10;;;;;;5093640;28;20414;-80
2023/06/04 02:13:13;;;;;;;2.88;0.40;;;16.90;62.10;;;;;;5093411;28;20059;-80
2023/06/04 02:15:39;;;;;;;2.38;0.38;;;16.90;62.20;;;;;;5092023;28;20155;-80
2023/06/04 02:18:16;;;;;;;1.35;0.40;;;17.00;62.00;;;;;;5093511;28;20111;-79
2023/06/04 02:20:44;;;;;;;2.38;0.40;;;17.00;62.20;;;;;;5093480;28;20062;-79
2023/06/04 02:23:09;;;;;;;1.45;0.50;;;17.00;61.90;;;;;;5092778;28;20024;-80
2023/06/04 02:25:35;;;;;;;2.55;0.50;;;16.90;62.10;;;;;;5075275;28;20043;-79
2023/06/04 02:28:00;;;;;;;3.40;0.77;;;16.60;62.20;;;;;;5093099;28;20040;-80
2023/06/04 02:30:26;;;;;;;1.90;0.40;;;16.60;62.70;;;;;;5075383;28;20161;-79
2023/06/04 02:32:52;;;;;;;3.17;0.50;;;16.50;63.00;;;;;;5093012;28;20031;-80
2023/06/04 02:35:17;;;;;;;2.10;0.45;;;16.40;63.10;;;;;;5075424;28;20119;-80
2023/06/04 02:37:43;;;;;;;2.47;0.50;;;16.40;63.50;;;;;;5075066;28;20475;-80
2023/06/04 02:40:10;;;;;;;1.50;0.50;;;16.50;63.60;;;;;;5092997;28;20068;-80
2023/06/04 02:42:36;;;;;;;0.95;0.40;;;16.70;62.90;;;;;;5074850;28;20109;-80
2023/06/04 02:45:01;;;;;;;2.58;0.40;;;16.70;62.80;;;;;;5075087;28;20059;-80
2023/06/04 02:47:27;;;;;;;2.20;0.50;;;16.50;62.80;;;;;;5093263;28;20058;-80
2023/06/04 02:49:53;;;;;;;2.72;0.45;;;16.40;63.10;;;;;;5093184;28;20059;-80
2023/06/04 02:52:18;;;;;;;2.03;0.60;;;16.30;63.60;;;;;;5092527;28;20032;-80
2023/06/04 02:54:44;;;;;;;1.10;0.30;;;16.20;63.60;;;;;;5092891;28;20395;-80
2023/06/04 02:57:10;;;;;;;1.52;0.50;;;16.20;64.00;;;;;;5093106;28;20057;-80
2023/06/04 02:59:36;;;;;;;4.30;0.60;;;16.30;64.10;;;;;;5093086;28;20479;-80
2023/06/04 03:02:02;;;;;;;2.65;0.50;;;16.40;63.90;;;;;;5093098;28;20067;-79
2023/06/04 03:04:33;;;;;;;2.65;0.82;;;16.40;63.70;;;;;;5075370;28;20460;-80
2023/06/04 03:07:03;;;;;;;3.17;0.55;;;16.40;63.90;;;;;;5096409;28;20040;-79
2023/06/04 03:09:30;;;;;;;1.83;0.63;;;16.30;64.10;;;;;;5096342;28;20484;-80
2023/06/04 03:12:01;;;;;;;2.28;0.45;;;16.40;63.80;;;;;;5096708;28;20069;-80
2023/06/04 03:14:32;;;;;;;1.98;0.60;;;16.30;63.90;;;;;;5096649;28;20028;-80
2023/06/04 03:17:07;;;;;;;3.50;0.68;;;16.30;64.00;;;;;;5078415;28;20039;-79
2023/06/04 03:19:35;;;;;;;1.52;0.50;;;16.30;64.20;;;;;;5096298;28;20032;-80
2023/06/04 03:22:04;;;;;;;2.97;0.70;;;16.30;64.30;;;;;;5096482;28;20039;-80
2023/06/04 03:24:30;;;;;;;2.72;0.60;;;16.30;64.20;;;;;;5096084;28;20024;-80
2023/06/04 03:26:55;;;;;;;1.88;0.60;;;16.30;64.40;;;;;;5096058;28;20040;-80
2023/06/04 03:29:21;;;;;;;3.78;0.80;;;16.30;64.50;;;;;;5096301;28;20039;-80
2023/06/04 03:31:47;;;;;;;2.25;0.75;;;16.30;64.20;;;;;;5077952;28;20032;-80
2023/06/04 03:34:12;;;;;;;1.40;0.45;;;16.30;64.40;;;;;;5060996;28;20463;-79
2023/06/04 03:36:38;;;;;;;2.10;0.63;;;16.20;64.70;;;;;;5096235;28;20032;-80
2023/06/04 03:39:04;;;;;;;2.42;0.60;;;16.30;64.80;;;;;;5095978;28;20024;-79
2023/06/04 03:41:30;;;;;;;5.10;0.60;;;16.10;65.00;;;;;;5095952;28;20456;-80
2023/06/04 03:43:56;;;;;;;2.60;0.50;;;16.10;65.60;;;;;;5095951;28;20031;-79
2023/06/04 03:46:21;;;;;;;2.67;0.70;;;16.20;65.30;;;;;;5095488;28;20064;-80
2023/06/04 03:48:47;;;;;;;2.75;0.60;;;16.20;65.50;;;;;;5096022;28;20459;-79
2023/06/04 03:51:13;;;;;;;2.25;0.60;;;16.20;65.30;;;;;;5095795;28;20066;-80
2023/06/04 03:53:38;;;;;;;4.78;0.50;;;16.20;65.40;;;;;;5095554;28;20028;-80
2023/06/04 03:56:04;;;;;;;2.13;0.70;;;16.20;65.30;;;;;;5095565;28;20043;-79
2023/06/04 03:58:29;;;;;;;2.97;0.75;;;16.20;65.40;;;;;;5096101;28;20482;-80
2023/06/04 04:00:57;;;;;;;4.28;0.70;;;16.10;65.60;;;;;;5095952;28;20369;-79
2023/06/04 04:03:22;;;;;;;2.50;0.85;;;16.10;65.80;;;;;;5095639;28;20542;-80
2023/06/04 04:05:48;;;;;;;3.30;0.88;;;16.10;65.80;;;;;;5095047;28;20123;-80
2023/06/04 04:08:16;;;;;;;1.75;0.60;;;16.10;65.90;;;;;;5060800;28;20101;-79
2023/06/04 04:10:41;;;;;;;3.45;0.68;;;16.10;66.10;;;;;;5077325;28;20101;-80
2023/06/04 04:13:07;;;;;;;3.20;0.80;;;16.30;66.30;;;;;;5095536;28;20468;-79
2023/06/04 04:15:33;;;;;;;2.78;0.60;;;16.30;65.90;;;;;;5095108;28;20056;-79
2023/06/04 04:17:59;;;;;;;4.05;0.95;;;16.40;65.90;;;;;;5077302;28;20032;-79
2023/06/04 04:20:25;;;;;;;2.67;0.80;;;16.50;65.80;;;;;;5095293;28;20103;-80
2023/06/04 04:22:51;;;;;;;3.03;0.80;;;16.50;65.60;;;;;;5094586;28;20052;-79
2023/06/04 04:25:16;;;;;;;4.80;1.08;;;16.40;65.80;;;;;;5076938;28;20081;-79
2023/06/04 04:27:42;;;;;;;1.98;0.63;;;16.30;66.10;;;;;;5095081;28;20032;-79
2023/06/04 04:30:09;;;;;;;1.85;0.68;;;16.30;66.30;;;;;;5095182;28;20090;-80
2023/06/04 04:32:38;;;;;;;2.15;0.70;;;16.30;66.50;;;;;;5076885;28;20132;-79
2023/06/04 04:35:04;;;;;;;2.42;0.90;;;16.40;66.50;;;;;;5095083;28;20032;-79
2023/06/04 04:37:30;;;;;;;2.70;0.80;;;16.40;66.50;;;;;;5094677;28;20426;-79
2023/06/04 04:39:55;;;;;;;1.60;0.65;;;16.20;66.90;;;;;;5094744;28;20038;-79
2023/06/04 04:42:21;;;;;;;2.05;0.60;;;16.10;67.50;;;;;;5095034;28;20361;-79
2023/06/04 04:44:48;;;;;;;3.58;1.00;;;16.10;67.80;;;;;;5094779;28;20069;-79
2023/06/04 04:47:15;;;;;;;6.15;0.82;;;16.20;67.40;;;;;;5094485;28;20101;-79
2023/06/04 04:49:41;;;;;;;3.72;0.88;;;16.10;67.60;;;;;;5094717;28;20028;-79
2023/06/04 04:52:06;;;;;;;2.05;0.70;;;16.20;67.70;;;;;;5094143;28;20384;-80
2023/06/04 04:54:32;;;;;;;3.42;1.10;;;16.10;67.90;;;;;;5094369;28;20024;-79
2023/06/04 04:56:57;;;;;;;5.13;0.98;;;16.00;68.20;;;;;;5094508;28;20038;-79
2023/06/04 04:59:23;;;;;;;3.20;0.80;;;16.00;68.60;;;;;;5094221;28;20115;-79
2023/06/04 05:01:48;;;;;;;2.47;1.05;;;16.00;68.40;;;;;;5094487;28;20024;-79
2023/06/04 05:04:14;;;;;;;5.03;1.10;;;16.00;68.60;;;;;;5076622;28;20024;-79
2023/06/04 05:06:40;;;;;;;3.53;1.35;;;16.10;68.60;;;;;;5094132;28;20036;-79
2023/06/04 05:09:06;;;;;;;3.47;1.00;;;16.00;68.70;;;;;;5094313;28;20063;-79
2023/06/04 05:11:32;;;;;;;2.42;0.60;;;16.00;69.00;;;;;;5094361;28;20380;-80
2023/06/04 05:13:57;;;;;;;3.80;1.27;;;16.10;69.10;;;;;;5094340;28;20024;-79
2023/06/04 05:16:24;;;;;;;3.22;0.77;;;16.20;68.70;;;;;;5094042;28;20028;-79
2023/06/04 05:18:51;;;;;;;2.85;0.60;;;16.20;68.50;;;;;;5094133;28;20032;-80
2023/06/04 05:21:17;;;;;;;4.43;1.27;;;16.40;68.50;;;;;;5093864;28;20057;-80
2023/06/04 05:23:45;;;;;;;5.18;1.08;;;16.40;68.60;;;;;;5093879;28;20032;-79
2023/06/04 05:26:10;;;;;;;3.92;1.13;;;16.30;68.70;;;;;;5093883;28;20032;-79
2023/06/04 05:28:36;;;;;;;2.72;1.20;;;16.10;69.00;;;;;;5093495;28;20071;-79
2023/06/04 05:31:02;;;;;;;3.38;0.90;;;16.00;69.40;;;;;;5094058;28;20062;-79
2023/06/04 05:33:30;;;;;;;4.97;1.90;;;16.10;69.60;;;;;;5093629;28;20387;-79
2023/06/04 05:35:57;;;;;;;3.60;1.00;;;16.00;69.60;;;;;;5075671;28;20035;-79
2023/06/04 05:38:25;;;;;;;3.10;0.82;;;16.00;69.80;;;;;;5076139;28;20036;-80
2023/06/04 05:40:52;;;;;;;2.78;1.17;;;16.00;69.80;;;;;;5093997;28;20111;-80
2023/06/04 05:43:18;;;;;;;2.75;0.90;;;16.00;69.90;;;;;;5093573;28;20487;-80
2023/06/04 05:45:43;;;;;;;6.30;1.00;;;16.10;69.60;;;;;;5075426;28;20066;-80
2023/06/04 05:48:10;;;;;;;3.95;0.70;;;16.20;69.50;;;;;;5093988;28;20051;-80
2023/06/04 05:50:36;;;;;;;2.22;1.00;;;16.40;69.20;;;;;;5093832;28;20036;-80
2023/06/04 05:53:02;;;;;;;2.00;0.60;;;16.40;69.00;;;;;;5074735;28;20046;-80
2023/06/04 05:55:29;;;;;;;3.83;1.00;;;16.40;69.40;;;;;;5093339;28;20038;-80
2023/06/04 05:57:54;;;;;;;2.35;0.93;;;16.50;69.40;;;;;;5093354;28;20081;-80
2023/06/04 06:00:21;;;;;;;4.30;1.30;;;16.50;69.30;;;;;;5075678;28;20032;-80
2023/06/04 06:02:50;;;;;;;3.58;1.13;;;16.50;69.30;;;;;;5093747;28;20021;-80
2023/06/04 06:05:17;;;;;;;3.17;1.10;;;16.60;69.30;;;;;;5093331;28;20028;-80
2023/06/04 06:07:43;;;;;;;2.83;1.00;;;16.60;69.30;;;;;;5075573;28;20028;-80
2023/06/04 06:10:09;;;;;;;5.80;1.30;;;16.70;69.00;;;;;;5093502;28;20028;-80
2023/06/04 06:12:35;;;;;;;3.13;1.05;;;16.80;69.00;;;;;;5093650;28;20483;-79
2023/06/04 06:15:00;;;;;;;1.33;0.60;;;16.80;68.90;;;;;;5093237;28;20028;-80
2023/06/04 06:17:26;;;;;;;3.88;0.90;;;16.80;69.10;;;;;;5075362;28;20110;-80
2023/06/04 06:19:52;;;;;;;2.72;1.15;;;16.90;69.00;;;;;;5093150;28;20388;-79
2023/06/04 06:22:18;;;;;;;2.83;0.77;;;17.10;68.50;;;;;;5093012;28;20031;-80
2023/06/04 06:24:43;;;;;;;3.22;1.05;;;17.20;68.40;;;;;;5093394;28;20040;-80
2023/06/04 06:27:10;;;;;;;4.25;1.00;;;17.20;68.00;;;;;;5093274;28;20050;-80
2023/06/04 06:29:36;;;;;;;4.70;1.52;;;17.20;68.10;;;;;;5093224;28;20035;-80
2023/06/04 06:32:02;;;;;;;3.65;1.17;;;17.20;68.20;;;;;;5093283;28;20033;-81
2023/06/04 06:34:28;;;;;;;3.40;1.23;;;17.20;67.90;;;;;;5058689;28;20533;-79
2023/06/04 06:36:54;;;;;;;6.85;1.60;;;17.30;67.30;;;;;;5075115;28;20028;-80
2023/06/04 06:39:20;;;;;;;4.10;1.55;;;17.30;67.50;;;;;;5095135;28;20064;-80
2023/06/04 06:41:46;;;;;;;2.72;0.93;;;17.40;67.70;;;;;;5097267;28;20487;-80
2023/06/04 06:44:11;;;;;;;5.38;1.15;;;17.50;67.50;;;;;;5097254;28;20085;-80
2023/06/04 06:46:37;;;;;;;4.63;1.25;;;17.70;67.20;;;;;;5097015;28;20056;-80
2023/06/04 06:49:02;;;;;;;5.10;1.10;;;17.70;66.50;;;;;;5096798;28;20410;-79
2023/06/04 06:51:28;;;;;;;2.65;0.85;;;17.80;66.40;;;;;;5096437;28;20457;-80
2023/06/04 06:53:54;;;;;;;6.13;1.33;;;17.80;66.70;;;;;;5097093;28;20056;-80
2023/06/04 06:56:20;;;;;;;4.00;0.98;;;17.90;66.10;;;;;;5078795;28;20032;-80
2023/06/04 06:58:45;;;;;;;5.53;1.17;;;18.00;66.30;;;;;;5096839;28;20111;-80
2023/06/04 07:01:12;;;;;;;3.45;1.00;;;17.90;66.10;;;;;;5078520;28;20044;-80
2023/06/04 07:03:39;;;;;;;5.38;1.35;;;17.90;66.70;;;;;;5096510;28;20032;-80
2023/06/04 07:06:05;;;;;;;3.92;1.10;;;17.90;66.30;;;;;;5078641;28;20119;-80
2023/06/04 07:08:31;;;;;;;2.55;1.10;;;18.00;66.00;;;;;;5096747;28;20025;-80
2023/06/04 07:10:57;;;;;;;4.07;1.08;;;18.10;65.60;;;;;;5096486;28;20032;-80
2023/06/04 07:13:23;;;;;;;2.78;0.88;;;18.10;64.90;;;;;;5096486;28;20054;-79
2023/06/04 07:15:49;;;;;;;3.55;1.20;;;18.10;64.70;;;;;;5096780;28;20460;-80
2023/06/04 07:18:15;;;;;;;3.88;1.17;;;18.10;64.90;;;;;;5096541;28;20417;-79
2023/06/04 07:20:40;;;;;;;3.78;1.10;;;18.20;64.90;;;;;;5096791;28;20032;-80
2023/06/04 07:23:06;;;;;;;4.65;1.50;;;18.30;65.10;;;;;;5096059;28;20032;-80
2023/06/04 07:25:33;;;;;;;2.00;0.70;;;18.30;63.60;;;;;;5096252;28;20039;-80
2023/06/04 07:27:58;;;;;;;4.78;0.88;;;18.40;64.00;;;;;;5096417;28;20042;-80
2023/06/04 07:30:27;;;;;;;3.30;0.73;;;18.70;64.50;;;;;;5096340;28;20106;-80
2023/06/04 07:32:53;;;;;;;3.05;1.00;;;18.80;64.30;;;;;;5094689;28;20028;-80
2023/06/04 07:35:18;;;;;;;4.47;1.27;;;19.00;63.50;;;;;;5096302;28;20032;-80
2023/06/04 07:37:47;;;;;;;2.78;0.85;;;19.00;64.40;;;;;;5077726;28;20028;-80
2023/06/04 07:40:13;;;;;;;7.03;1.17;;;19.10;63.80;;;;;;5096110;28;20036;-80
2023/06/04 07:42:39;;;;;;;3.80;1.02;;;19.20;63.40;;;;;;5077698;28;20029;-79
2023/06/04 07:45:05;;;;;;;4.05;0.93;;;19.10;63.70;;;;;;5096085;28;20107;-80
2023/06/04 07:47:31;;;;;;;4.95;1.05;;;19.30;63.50;;;;;;5095392;28;20064;-80
2023/06/04 07:49:57;;;;;;;3.67;0.70;;;19.40;63.20;;;;;;5095089;28;20594;-80
2023/06/04 07:52:22;;;;;;;2.58;0.80;;;19.40;63.20;;;;;;5060393;28;20425;-81
2023/06/04 07:54:48;;;;;;;2.17;0.60;;;19.60;63.50;;;;;;5077561;28;20109;-79
2023/06/04 07:57:13;;;;;;;2.60;0.70;;;19.70;62.50;;;;;;5095610;28;20028;-80
2023/06/04 07:59:39;;;;;;;3.10;0.70;;;19.90;62.60;;;;;;5077716;28;20028;-80
2023/06/04 08:02:05;;;;;;;3.90;0.52;;;20.10;62.00;;;;;;5095804;28;20532;-80
2023/06/04 08:04:31;;;;;;;2.50;0.60;;;20.30;61.80;;;;;;5095381;28;20028;-80
2023/06/04 08:06:57;;;;;;;2.70;0.77;;;20.50;61.10;;;;;;5095495;28;20047;-81
2023/06/04 08:09:22;;;;;;;4.70;0.75;;;20.60;61.50;;;;;;5095458;28;20028;-80
2023/06/04 08:11:49;;;;;;;2.13;0.50;;;20.60;60.60;;;;;;5095646;28;20409;-80
2023/06/04 08:14:14;;;;;;;3.15;0.65;;;20.70;60.10;;;;;;5095158;28;20028;-81
2023/06/04 08:16:40;;;;;;;2.85;0.85;;;20.70;59.10;;;;;;5095695;28;20028;-81
2023/06/04 08:19:07;;;;;;;3.15;0.70;;;20.80;59.70;;;;;;5095233;28;20032;-80
2023/06/04 08:21:33;;;;;;;5.78;0.60;;;20.90;59.50;;;;;;5094822;28;20362;-81
2023/06/04 08:24:00;;;;;;;3.47;0.40;;;21.00;58.60;;;;;;5095268;28;20028;-81
2023/06/04 08:26:26;;;;;;;2.85;0.32;;;21.10;57.60;;;;;;5077111;28;20460;-81
2023/06/04 08:28:52;;;;;;;2.55;0.50;;;21.10;58.80;;;;;;5095170;28;20106;-81
2023/06/04 08:31:18;;;;;;;2.03;0.45;;;21.20;57.10;;;;;;5095243;28;20103;-81
2023/06/04 08:33:47;;;;;;;1.63;0.50;;;21.20;55.30;;;;;;5060607;28;20032;-81
2023/06/04 08:36:15;;;;;;;1.48;0.50;;;21.00;55.50;;;;;;5094764;28;20024;-82
2023/06/04 08:38:41;;;;;;;5.00;0.70;;;21.10;56.00;;;;;;5094982;28;20166;-82
2023/06/04 08:41:16;;;;;;;4.10;0.50;;;21.10;55.20;;;;;;5094906;28;20110;-80
2023/06/04 08:43:43;;;;;;;2.90;0.60;;;21.20;55.60;;;;;;5094970;28;20039;-80
2023/06/04 08:46:09;;;;;;;1.67;0.40;;;21.40;56.00;;;;;;5094686;28;20044;-81
2023/06/04 08:48:37;;;;;;;2.65;0.50;;;21.50;56.10;;;;;;5060144;28;20036;-79
2023/06/04 08:51:08;;;;;;;2.13;0.60;;;21.80;55.40;;;;;;5076677;28;20033;-81
2023/06/04 08:53:34;;;;;;;3.50;0.60;;;21.90;55.50;;;;;;5092813;28;20051;-81
2023/06/04 08:56:00;;;;;;;2.38;0.73;;;21.80;55.00;;;;;;5094698;28;20036;-81
2023/06/04 08:58:30;;;;;;;3.58;0.47;;;21.80;53.80;;;;;;5094650;28;20062;-81
2023/06/04 09:00:56;;;;;;;1.27;0.63;;;21.80;53.50;;;;;;5094245;28;20028;-80
2023/06/04 09:03:24;;;;;;;2.95;0.50;;;22.00;53.40;;;;;;5093013;28;20499;-80
2023/06/04 09:05:51;;;;;;;4.82;0.50;;;22.10;54.30;;;;;;5076157;28;20036;-81
2023/06/04 09:08:19;;;;;;;2.88;0.43;;;22.20;52.80;;;;;;5094186;28;20043;-80
2023/06/04 09:10:49;;;;;;;3.10;0.90;;;22.20;51.00;;;;;;5094211;28;20099;-80
2023/06/04 09:13:17;;;;;;;1.92;0.40;;;22.20;51.20;;;;;;5094412;28;20119;-81
2023/06/04 09:15:42;;;;;;;3.22;0.30;;;22.30;52.50;;;;;;5094037;28;20081;-81
2023/06/04 09:18:08;;;;;;;1.90;0.32;;;22.40;51.90;;;;;;5094086;28;20028;-81
2023/06/04 09:20:33;;;;;;;3.40;0.30;;;22.60;50.10;;;;;;5094195;28;20032;-81
2023/06/04 09:22:59;;;;;;;2.65;0.50;;;22.50;49.60;;;;;;5093420;28;20032;-80
2023/06/04 09:25:26;;;;;;;2.38;0.30;;;22.50;50.00;;;;;;5093808;28;20032;-80
2023/06/04 09:27:57;;;;;;;1.35;0.40;;;22.60;50.60;;;;;;5093866;28;20043;-81
2023/06/04 09:30:23;;;;;;;2.08;0.50;;;22.80;48.10;;;;;;5094084;28;20024;-81
2023/06/04 09:32:48;;;;;;;2.17;0.40;;;22.80;47.90;;;;;;5093614;28;20101;-80
2023/06/04 09:35:15;;;;;;;3.10;0.60;;;22.80;49.50;;;;;;5075710;28;20064;-81
2023/06/04 09:37:42;;;;;;;1.60;0.30;;;22.80;49.10;;;;;;5093724;28;20034;-81
2023/06/04 09:40:10;;;;;;;2.38;0.60;;;22.80;49.50;;;;;;5075810;28;20055;-81
2023/06/04 09:42:48;;;;;;;1.63;0.50;;;22.80;49.60;;;;;;5093955;28;20430;-81
2023/06/04 09:45:30;;;;;;;2.10;0.25;;;22.90;48.80;;;;;;5093544;28;20107;-81
2023/06/04 09:47:55;;;;;;;1.33;0.30;;;23.00;47.40;;;;;;5093568;28;20054;-82
2023/06/04 09:50:38;;;;;;;2.35;0.40;;;23.00;47.50;;;;;;5075784;28;20110;-81
2023/06/04 09:53:22;;;;;;;2.05;0.45;;;23.20;46.00;;;;;;5075275;28;20024;-81
2023/06/04 09:55:58;;;;;;;4.20;0.38;;;23.30;46.90;;;;;;5093914;28;20040;-82
2023/06/04 09:58:26;;;;;;;1.58;0.20;;;23.30;46.80;;;;;;5093344;28;20020;-77
2023/06/04 10:00:54;;;;;;;0.95;0.32;;;23.30;47.10;;;;;;5075467;28;20543;-81
2023/06/04 10:03:25;;;;;;;0.80;0.28;;;23.30;46.70;;;;;;5093920;28;20106;-81
2023/06/04 10:05:53;;;;;;;1.48;0.30;;;23.50;46.70;;;;;;5093666;28;20027;-81
2023/06/04 10:08:22;;;;;;;1.13;0.30;;;23.50;46.50;;;;;;5093984;28;20031;-81
2023/06/04 10:10:50;;;;;;;2.05;0.30;;;23.60;46.40;;;;;;5093431;28;20027;-82
2023/06/04 10:13:20;;;;;;;2.80;0.50;;;23.60;46.00;;;;;;5075694;28;20028;-82
2023/06/04 10:15:47;;;;;;;1.02;0.30;;;23.70;44.90;;;;;;5097694;28;20028;-81
2023/06/04 10:18:15;;;;;;;1.63;0.30;;;23.70;45.00;;;;;;5097331;28;20107;-82
2023/06/04 10:20:41;;;;;;;1.92;0.50;;;23.70;46.80;;;;;;5079486;28;20081;-82
2023/06/04 10:23:07;;;;;;;3.45;0.40;;;23.90;45.50;;;;;;5097094;28;20031;-82
2023/06/04 10:25:35;;;;;;;4.05;0.40;;;24.00;45.70;;;;;;5079012;28;20488;-81
2023/06/04 10:28:02;;;;;;;1.70;0.30;;;24.10;46.10;;;;;;5079382;28;20054;-81
2023/06/04 10:30:30;;;;;;;2.35;0.40;;;24.20;45.00;;;;;;5097400;28;20039;-81
2023/06/04 10:32:57;;;;;;;2.25;0.40;;;24.20;45.10;;;;;;5096984;28;20553;-81
2023/06/04 10:35:31;;;;;;;3.45;0.30;;;24.20;45.20;;;;;;5097220;28;20028;-81
2023/06/04 10:38:11;;;;;;;2.17;0.30;;;24.20;45.40;;;;;;5097411;28;20020;-82
2023/06/04 10:40:38;;;;;;;3.53;0.40;;;24.30;45.30;;;;;;5097307;28;20024;-81
2023/06/04 10:43:08;;;;;;;1.48;0.50;;;24.30;45.60;;;;;;5097134;28;20035;-82
2023/06/04 10:45:33;;;;;;;2.72;0.50;;;24.40;45.20;;;;;;5097146;28;20495;-81
2023/06/04 10:48:01;;;;;;;2.22;0.50;;;24.50;45.10;;;;;;5097178;28;20056;-81
2023/06/04 10:50:26;;;;;;;2.90;0.30;;;24.50;44.40;;;;;;5096658;28;20032;-81
2023/06/04 10:52:53;;;;;;;2.65;0.47;;;24.50;45.60;;;;;;5096413;28;20490;-82
2023/06/04 10:55:19;;;;;;;2.10;0.30;;;24.60;46.20;;;;;;5096748;28;20473;-81
2023/06/04 10:57:55;;;;;;;1.15;0.40;;;24.60;46.80;;;;;;5097032;28;20031;-82
2023/06/04 11:00:22;;;;;;;1.17;0.32;;;24.60;45.20;;;;;;5078980;28;20028;-82
2023/06/04 11:03:07;;;;;;;3.00;0.35;;;24.60;45.20;;;;;;5078393;28;20395;-81
2023/06/04 11:05:43;;;;;;;2.90;0.40;;;24.70;45.90;;;;;;5078685;28;20479;-82
2023/06/04 11:08:10;;;;;;;2.45;0.35;;;24.70;45.30;;;;;;5096838;28;20016;-81
2023/06/04 11:10:41;;;;;;;3.47;0.35;;;24.80;44.80;;;;;;5097138;28;20051;-81
2023/06/04 11:13:08;;;;;;;1.73;0.40;;;24.90;44.80;;;;;;5097024;28;20082;-79
2023/06/04 11:15:42;;;;;;;3.28;0.38;;;25.00;44.00;;;;;;5096615;28;20115;-81
2023/06/04 11:18:08;;;;;;;1.85;0.30;;;25.00;44.80;;;;;;5078739;28;20353;-81
2023/06/04 11:20:34;;;;;;;2.03;0.50;;;25.10;45.10;;;;;;5096217;28;20073;-81
2023/06/04 11:23:02;;;;;;;1.80;0.28;;;25.20;45.00;;;;;;5095739;28;20032;-81
2023/06/04 11:25:30;;;;;;;2.83;0.70;;;25.30;44.90;;;;;;5095225;28;20107;-81
2023/06/04 11:27:57;;;;;;;1.92;0.43;;;25.30;44.20;;;;;;5078628;28;20021;-81
2023/06/04 11:30:23;;;;;;;2.33;0.35;;;25.30;44.40;;;;;;5096271;28;20043;-82
2023/06/04 11:32:50;;;;;;;4.45;0.52;;;25.30;44.20;;;;;;5096705;28;20127;-81
2023/06/04 11:35:16;;;;;;;1.20;0.50;;;25.30;44.30;;;;;;5096369;28;20140;-82
2023/06/04 11:37:52;;;;;;;1.63;0.35;;;25.40;44.70;;;;;;5077996;28;20038;-82
2023/06/04 11:40:19;;;;;;;1.40;0.30;;;25.60;44.70;;;;;;5077979;28;20353;-81
2023/06/04 11:42:48;;;;;;;1.05;0.30;;;25.70;44.80;;;;;;5094822;28;20395;-82
2023/06/04 11:45:19;;;;;;;1.40;0.35;;;25.90;44.10;;;;;;5061791;28;20384;-79
2023/06/04 11:47:47;;;;;;;2.33;0.50;;;25.90;43.90;;;;;;5096166;28;20093;-82
2023/06/04 11:50:13;;;;;;;1.35;0.50;;;25.80;43.50;;;;;;5095816;28;20028;-82
2023/06/04 11:52:38;;;;;;;4.25;0.40;;;25.60;43.90;;;;;;5095656;28;20035;-81
2023/06/04 11:55:09;;;;;;;3.97;0.57;;;25.50;44.20;;;;;;5095514;28;20032;-81
2023/06/04 11:57:35;;;;;;;1.15;0.50;;;25.70;45.90;;;;;;5095878;28;20043;-82
2023/06/04 12:00:02;;;;;;;1.52;0.43;;;25.90;44.60;;;;;;5095961;28;20117;-81
2023/06/04 12:02:27;;;;;;;2.20;0.38;;;25.90;44.30;;;;;;5095684;28;20036;-81
2023/06/04 12:04:53;;;;;;;2.15;0.30;;;25.90;43.00;;;;;;5095709;28;20028;-82
2023/06/04 12:07:25;;;;;;;1.05;0.30;;;25.90;44.00;;;;;;5095593;28;20066;-82
2023/06/04 12:09:50;;;;;;;2.60;0.40;;;26.00;43.70;;;;;;5095478;28;20032;-82
2023/06/04 12:12:23;;;;;;;1.23;0.52;;;26.20;44.40;;;;;;5095170;28;20510;-82
2023/06/04 12:14:55;;;;;;;;;;;26.30;43.60;;;;;;5096072;28;20024;-81
2023/06/04 12:17:21;;;;;;;2.05;0.85;;;26.40;43.40;;;;;;5077669;28;19919;-81
2023/06/04 12:19:48;;;;;;;4.43;0.47;;;26.30;44.00;;;;;;5095744;28;20032;-82
2023/06/04 12:22:14;;;;;;;1.58;0.30;;;26.30;42.70;;;;;;5094970;28;20032;-81
2023/06/04 12:24:55;;;;;;;0.85;0.43;;;26.30;43.00;;;;;;5095396;28;20039;-82
2023/06/04 12:27:25;;;;;;;1.50;0.40;;;26.20;43.00;;;;;;5076485;28;20410;-82
2023/06/04 12:30:02;;;;;;;2.13;0.60;;;26.40;41.90;;;;;;5095171;28;20028;-82
2023/06/04 12:32:28;;;;;;;0.70;0.30;;;26.60;43.50;;;;;;5095111;28;20056;-81
2023/06/04 12:34:54;;;;;;;2.40;0.60;;;26.60;42.80;;;;;;5094992;28;20036;-82
2023/06/04 12:37:21;;;;;;;2.45;0.45;;;26.60;43.00;;;;;;5094221;28;20032;-83
2023/06/04 12:39:47;;;;;;;4.10;0.85;;;26.60;43.80;;;;;;5094624;28;20058;-81
2023/06/04 12:42:13;;;;;;;2.70;0.50;;;26.60;43.20;;;;;;5076660;28;20123;-83
2023/06/04 12:44:40;;;;;;;2.20;0.40;;;26.60;43.90;;;;;;5094780;28;20483;-82
2023/06/04 12:47:06;;;;;;;1.17;0.55;;;26.50;43.00;;;;;;5094411;28;20056;-82